Time;durP1;ratioP1;P1;durP2;ratioP2;P2;SDS_P1;SDS_P2;PMS_P1;PMS_P2;Temp;Humidity;BMP_temperature;BMP_pressure;BME280_temperature;BME280_humidity;BME280_pressure;Samples;Min_cycle;Max_cycle;Signal;HPM_P1;HPM_P2
2023/11/01 00:00:20;;;;;;;1.25;1.00;;;22.70;43.50;;;;;;6181575;23;20189;-42
2023/11/01 00:02:47;;;;;;;2.03;0.80;;;22.70;43.60;;;;;;6182138;23;20195;-42
2023/11/01 00:05:13;;;;;;;4.72;0.93;;;22.70;43.50;;;;;;6181506;23;20250;-42
2023/11/01 00:07:40;;;;;;;2.55;1.00;;;22.70;43.50;;;;;;6178618;23;20212;-41
2023/11/01 00:10:06;;;;;;;1.33;0.90;;;22.70;43.60;;;;;;6180809;23;20253;-42
2023/11/01 00:12:32;;;;;;;1.02;0.82;;;22.70;43.60;;;;;;6182099;23;20277;-42
2023/11/01 00:14:59;;;;;;;2.50;1.00;;;22.70;43.60;;;;;;6182420;23;20257;-42
2023/11/01 00:17:25;;;;;;;1.17;1.00;;;22.70;43.50;;;;;;6182231;23;20277;-42
2023/11/01 00:19:52;;;;;;;1.35;0.90;;;22.70;43.60;;;;;;6182323;23;20262;-41
2023/11/01 00:22:18;;;;;;;1.50;1.00;;;22.70;43.60;;;;;;6181722;23;20277;-42
2023/11/01 00:24:45;;;;;;;2.65;1.13;;;22.70;43.60;;;;;;6178691;23;20245;-41
2023/11/01 00:27:11;;;;;;;2.05;0.90;;;22.70;43.70;;;;;;6182404;23;20280;-41
2023/11/01 00:29:38;;;;;;;2.17;1.27;;;22.70;43.70;;;;;;6182169;23;20257;-42
2023/11/01 00:32:04;;;;;;;1.92;1.08;;;22.70;43.70;;;;;;6181742;23;20241;-42
2023/11/01 00:34:31;;;;;;;3.03;1.17;;;22.70;43.70;;;;;;6180957;23;20178;-42
2023/11/01 00:36:57;;;;;;;1.75;1.00;;;22.70;43.70;;;;;;6182209;23;20237;-42
2023/11/01 00:39:24;;;;;;;1.55;0.90;;;22.70;43.70;;;;;;6182726;23;20217;-42
2023/11/01 00:41:50;;;;;;;1.25;0.90;;;22.70;43.60;;;;;;6178923;23;20526;-41
2023/11/01 00:44:16;;;;;;;2.22;1.10;;;22.70;43.60;;;;;;6180375;23;20270;-42
2023/11/01 00:46:43;;;;;;;1.92;0.80;;;22.70;43.70;;;;;;6182868;23;20266;-42
2023/11/01 00:49:09;;;;;;;1.85;0.90;;;22.70;43.70;;;;;;6181854;23;20258;-42
2023/11/01 00:51:36;;;;;;;1.02;0.75;;;22.70;43.70;;;;;;6182902;23;20277;-42
2023/11/01 00:54:02;;;;;;;1.98;0.80;;;22.70;43.60;;;;;;6181825;23;20178;-42
2023/11/01 00:56:29;;;;;;;1.35;0.90;;;22.70;43.60;;;;;;6181044;23;20212;-41
2023/11/01 00:58:55;;;;;;;1.27;0.73;;;22.70;43.60;;;;;;6176159;23;20186;-42
2023/11/01 01:01:22;;;;;;;1.63;1.10;;;22.70;43.60;;;;;;6179636;23;20274;-42
2023/11/01 01:03:48;;;;;;;1.15;1.05;;;22.70;43.60;;;;;;6181189;23;20257;-42
2023/11/01 01:06:15;;;;;;;1.17;0.80;;;22.70;43.60;;;;;;6184012;23;20556;-41
2023/11/01 01:08:41;;;;;;;1.10;1.00;;;22.70;43.60;;;;;;6181577;23;20259;-42
2023/11/01 01:11:07;;;;;;;2.15;1.00;;;22.70;43.60;;;;;;6182949;23;20175;-41
2023/11/01 01:13:34;;;;;;;1.02;0.80;;;22.70;43.60;;;;;;6178947;23;20209;-42
2023/11/01 01:16:03;;;;;;;0.88;0.80;;;22.70;43.50;;;;;;6180177;23;20366;-42
2023/11/01 01:18:29;;;;;;;1.90;0.90;;;22.70;43.60;;;;;;6177817;23;20671;-42
2023/11/01 01:20:56;;;;;;;2.92;0.80;;;22.70;43.50;;;;;;6181934;23;20671;-41
2023/11/01 01:23:22;;;;;;;2.67;1.10;;;22.70;43.50;;;;;;6183375;23;20163;-42
2023/11/01 01:25:49;;;;;;;1.50;1.20;;;22.70;43.50;;;;;;6182317;23;20214;-41
2023/11/01 01:28:15;;;;;;;0.90;0.70;;;22.70;43.60;;;;;;6181574;23;20262;-42
2023/11/01 01:30:41;;;;;;;0.80;0.77;;;22.70;43.60;;;;;;6182753;23;20217;-42
2023/11/01 01:33:08;;;;;;;1.77;0.90;;;22.70;43.60;;;;;;6183166;23;20274;-42
2023/11/01 01:35:34;;;;;;;0.98;0.75;;;22.70;43.60;;;;;;6178070;23;20524;-42
2023/11/01 01:38:01;;;;;;;0.80;0.80;;;22.70;43.60;;;;;;6176512;23;20179;-42
2023/11/01 01:40:27;;;;;;;1.50;0.90;;;22.70;43.70;;;;;;6183023;23;20178;-42
2023/11/01 01:42:54;;;;;;;1.83;0.90;;;22.70;43.70;;;;;;6181653;23;20198;-42
2023/11/01 01:45:20;;;;;;;1.58;0.80;;;22.70;43.60;;;;;;6185178;23;20175;-42
2023/11/01 01:47:47;;;;;;;1.08;0.70;;;22.70;43.60;;;;;;6180377;23;20551;-42
2023/11/01 01:50:13;;;;;;;0.93;0.82;;;22.70;43.60;;;;;;6182447;23;20699;-42
2023/11/01 01:52:39;;;;;;;1.10;0.98;;;22.70;43.60;;;;;;6185177;23;20755;-42
2023/11/01 01:55:06;;;;;;;0.90;0.90;;;22.70;43.60;;;;;;6184761;23;20179;-42
2023/11/01 01:57:33;;;;;;;1.15;1.05;;;22.70;43.70;;;;;;6183892;23;20207;-41
2023/11/01 01:59:59;;;;;;;1.17;0.90;;;22.70;43.60;;;;;;6183950;23;20659;-42
2023/11/01 02:02:26;;;;;;;1.38;0.93;;;22.70;43.70;;;;;;6183905;23;20758;-41
2023/11/01 02:04:52;;;;;;;1.23;0.80;;;22.70;43.70;;;;;;6182163;23;20618;-42
2023/11/01 02:07:19;;;;;;;1.00;0.77;;;22.70;43.70;;;;;;6183577;23;20179;-42
2023/11/01 02:09:45;;;;;;;1.05;0.75;;;22.70;43.70;;;;;;6182496;23;20253;-41
2023/11/01 02:12:12;;;;;;;1.30;0.80;;;22.60;43.60;;;;;;6184805;23;20269;-42
2023/11/01 02:14:38;;;;;;;1.05;0.80;;;22.60;43.60;;;;;;6183097;23;20253;-41
2023/11/01 02:17:06;;;;;;;1.00;0.82;;;22.60;43.70;;;;;;6183521;23;20284;-42
2023/11/01 02:19:32;;;;;;;1.27;0.80;;;22.60;43.60;;;;;;6181582;23;20175;-42
2023/11/01 02:21:59;;;;;;;2.97;1.17;;;22.70;43.70;;;;;;6180096;23;20281;-42
2023/11/01 02:24:25;;;;;;;1.95;0.80;;;22.60;43.60;;;;;;6182635;23;20261;-41
2023/11/01 02:26:51;;;;;;;0.95;0.70;;;22.70;43.70;;;;;;6182984;23;20257;-42
2023/11/01 02:29:18;;;;;;;0.80;0.70;;;22.60;43.60;;;;;;6182940;23;20261;-42
2023/11/01 02:31:44;;;;;;;2.80;1.00;;;22.60;43.70;;;;;;6184457;23;20230;-41
2023/11/01 02:34:11;;;;;;;0.70;0.70;;;22.60;43.60;;;;;;6185315;23;20178;-42
2023/11/01 02:36:37;;;;;;;2.47;1.10;;;22.60;43.60;;;;;;6184010;23;20208;-41
2023/11/01 02:39:03;;;;;;;1.73;0.90;;;22.60;43.60;;;;;;6183438;23;20258;-41
2023/11/01 02:41:29;;;;;;;0.77;0.77;;;22.70;43.60;;;;;;6180472;23;20743;-40
2023/11/01 02:43:56;;;;;;;1.15;0.80;;;22.70;43.60;;;;;;6183350;23;20179;-42
2023/11/01 02:46:22;;;;;;;1.10;1.00;;;22.70;43.60;;;;;;6184066;23;20277;-42
2023/11/01 02:48:49;;;;;;;1.77;0.80;;;22.70;43.60;;;;;;6182342;23;20257;-42
2023/11/01 02:51:15;;;;;;;1.48;1.00;;;22.70;43.60;;;;;;6184325;23;20202;-41
2023/11/01 02:53:41;;;;;;;1.50;0.80;;;22.70;43.60;;;;;;6183857;23;20233;-42
2023/11/01 02:56:08;;;;;;;1.10;0.80;;;22.70;43.60;;;;;;6183269;23;20270;-41
2023/11/01 02:58:34;;;;;;;0.90;0.73;;;22.70;43.60;;;;;;6180290;23;20182;-42
2023/11/01 03:01:01;;;;;;;3.78;1.05;;;22.70;43.60;;;;;;6182669;23;20201;-42
2023/11/01 03:03:28;;;;;;;1.63;0.80;;;22.70;43.60;;;;;;6184324;23;20623;-41
2023/11/01 03:05:55;;;;;;;1.42;1.20;;;22.70;44.30;;;;;;6183534;23;20229;-41
2023/11/01 03:08:21;;;;;;;1.10;1.00;;;22.70;43.70;;;;;;6183111;23;20715;-42
2023/11/01 03:10:48;;;;;;;0.90;0.80;;;22.70;43.70;;;;;;6183843;23;20179;-42
2023/11/01 03:13:14;;;;;;;2.28;1.10;;;22.70;43.70;;;;;;6183536;23;20266;-42
2023/11/01 03:15:41;;;;;;;1.42;0.90;;;22.70;43.70;;;;;;6180326;23;20237;-42
2023/11/01 03:18:07;;;;;;;1.15;1.00;;;22.70;43.70;;;;;;6181793;23;20206;-42
2023/11/01 03:20:34;;;;;;;3.05;1.00;;;22.70;43.70;;;;;;6184031;23;20253;-42
2023/11/01 03:23:00;;;;;;;1.50;1.20;;;22.60;43.60;;;;;;6182738;23;20190;-42
2023/11/01 03:25:27;;;;;;;1.17;0.98;;;22.70;43.70;;;;;;6184486;23;20197;-42
2023/11/01 03:27:53;;;;;;;1.08;0.93;;;22.70;43.70;;;;;;6182999;23;20210;-41
2023/11/01 03:30:22;;;;;;;1.00;0.93;;;22.70;43.70;;;;;;6182922;23;20253;-41
2023/11/01 03:32:48;;;;;;;0.75;0.75;;;22.70;43.70;;;;;;6180881;23;20194;-42
2023/11/01 03:35:15;;;;;;;1.02;0.70;;;22.70;43.70;;;;;;6182971;23;20213;-42
2023/11/01 03:37:41;;;;;;;1.02;0.93;;;22.70;43.70;;;;;;6182888;23;20210;-42
2023/11/01 03:40:08;;;;;;;0.65;0.65;;;22.70;43.70;;;;;;6184466;23;20209;-41
2023/11/01 03:42:34;;;;;;;1.02;0.95;;;22.70;43.70;;;;;;6182581;23;20284;-41
2023/11/01 03:45:01;;;;;;;1.60;0.98;;;22.70;43.70;;;;;;6184389;23;20253;-42
2023/11/01 03:47:27;;;;;;;1.27;0.82;;;22.70;43.70;;;;;;6182377;23;20185;-42
2023/11/01 03:49:54;;;;;;;0.75;0.75;;;22.70;43.70;;;;;;6180091;23;20185;-42
2023/11/01 03:52:21;;;;;;;1.50;0.90;;;22.70;43.70;;;;;;6182351;23;20278;-42
2023/11/01 03:54:47;;;;;;;1.27;0.82;;;22.70;43.70;;;;;;6183596;23;20182;-42
2023/11/01 03:57:13;;;;;;;2.25;1.00;;;22.70;43.70;;;;;;6180626;23;20206;-42
2023/11/01 03:59:40;;;;;;;2.85;1.00;;;22.70;43.70;;;;;;6181174;23;20257;-42
2023/11/01 04:02:06;;;;;;;1.08;0.90;;;22.70;43.70;;;;;;6183199;23;20273;-42
2023/11/01 04:04:33;;;;;;;1.38;0.80;;;22.70;43.70;;;;;;6183497;23;20254;-42
2023/11/01 04:06:59;;;;;;;1.02;0.80;;;22.70;43.70;;;;;;6183427;23;20217;-42
2023/11/01 04:09:26;;;;;;;2.65;0.90;;;22.70;43.70;;;;;;6179705;23;20660;-41
2023/11/01 04:11:52;;;;;;;0.85;0.85;;;22.70;43.70;;;;;;6181981;23;20198;-42
2023/11/01 04:14:19;;;;;;;2.17;1.33;;;22.70;43.70;;;;;;6183551;23;20257;-41
2023/11/01 04:16:46;;;;;;;0.73;0.68;;;22.70;43.70;;;;;;6182538;23;20281;-41
2023/11/01 04:19:12;;;;;;;2.17;1.00;;;22.70;43.70;;;;;;6182810;23;20174;-41
2023/11/01 04:21:39;;;;;;;1.10;0.80;;;22.70;43.70;;;;;;6182106;23;20233;-42
2023/11/01 04:24:05;;;;;;;1.88;0.80;;;22.70;43.70;;;;;;6183096;23;20265;-41
2023/11/01 04:26:33;;;;;;;1.15;1.05;;;22.70;43.80;;;;;;6180617;23;20181;-41
2023/11/01 04:29:00;;;;;;;0.95;0.88;;;22.60;43.60;;;;;;6181177;23;20174;-41
2023/11/01 04:31:26;;;;;;;1.13;0.93;;;22.70;43.80;;;;;;6182490;23;20278;-41
2023/11/01 04:33:53;;;;;;;0.93;0.90;;;22.60;43.70;;;;;;6183247;23;20182;-41
2023/11/01 04:36:24;;;;;;;1.40;0.93;;;22.70;43.80;;;;;;6183443;23;20261;-41
2023/11/01 04:38:51;;;;;;;1.35;0.80;;;22.70;43.80;;;;;;6182817;23;20162;-41
2023/11/01 04:41:18;;;;;;;1.42;0.98;;;22.60;43.70;;;;;;6182713;23;20198;-41
2023/11/01 04:43:44;;;;;;;1.80;1.13;;;22.70;43.90;;;;;;6179946;23;20257;-41
2023/11/01 04:46:11;;;;;;;1.08;0.80;;;22.70;43.90;;;;;;6182470;23;20206;-41
2023/11/01 04:48:37;;;;;;;0.93;0.80;;;22.70;43.80;;;;;;6182372;23;20220;-41
2023/11/01 04:51:04;;;;;;;0.70;0.70;;;22.60;43.70;;;;;;6182984;23;20673;-41
2023/11/01 04:53:30;;;;;;;1.73;0.90;;;22.70;43.80;;;;;;6183004;23;20179;-41
2023/11/01 04:55:56;;;;;;;1.33;1.00;;;22.60;43.70;;;;;;6182249;23;20695;-41
2023/11/01 04:58:23;;;;;;;1.10;0.90;;;22.60;43.70;;;;;;6182757;23;20584;-41
2023/11/01 05:00:49;;;;;;;1.30;0.90;;;22.70;43.90;;;;;;6180032;23;20273;-41
2023/11/01 05:03:16;;;;;;;0.70;0.70;;;22.60;43.80;;;;;;6180193;23;20217;-42
2023/11/01 05:05:42;;;;;;;1.10;0.80;;;22.70;43.80;;;;;;6183588;23;20258;-42
2023/11/01 05:08:09;;;;;;;1.50;1.00;;;22.70;43.80;;;;;;6183477;23;20257;-42
2023/11/01 05:10:35;;;;;;;0.90;0.90;;;22.60;43.80;;;;;;6182953;23;20253;-41
2023/11/01 05:13:05;;;;;;;1.05;0.70;;;22.70;43.80;;;;;;6180626;23;20257;-41
2023/11/01 05:15:31;;;;;;;0.60;0.60;;;22.70;43.80;;;;;;6180825;23;20672;-41
2023/11/01 05:17:58;;;;;;;0.80;0.75;;;22.60;43.70;;;;;;6181094;23;20395;-40
2023/11/01 05:20:24;;;;;;;1.02;0.95;;;22.60;43.70;;;;;;6183563;23;20274;-41
2023/11/01 05:22:51;;;;;;;0.82;0.80;;;22.70;43.80;;;;;;6181869;23;20691;-41
2023/11/01 05:25:17;;;;;;;1.20;0.90;;;22.70;43.80;;;;;;6185633;23;20175;-41
2023/11/01 05:27:44;;;;;;;1.63;1.02;;;22.70;43.80;;;;;;6184091;23;20555;-41
2023/11/01 05:30:09;;;;;;;0.65;0.65;;;22.70;43.80;;;;;;6183659;23;20545;-41
2023/11/01 05:32:36;;;;;;;1.02;0.80;;;22.70;43.80;;;;;;6183750;23;20183;-41
2023/11/01 05:35:03;;;;;;;1.00;0.80;;;22.60;43.70;;;;;;6182439;23;20183;-42
2023/11/01 05:37:30;;;;;;;1.55;0.90;;;22.70;43.80;;;;;;6182504;23;20783;-41
2023/11/01 05:39:56;;;;;;;0.85;0.80;;;22.70;43.80;;;;;;6184438;23;20723;-42
2023/11/01 05:42:23;;;;;;;0.70;0.70;;;22.70;43.80;;;;;;6182767;23;20298;-42
2023/11/01 05:44:50;;;;;;;0.98;0.80;;;22.60;43.70;;;;;;6184761;23;20269;-42
2023/11/01 05:47:16;;;;;;;0.80;0.80;;;22.70;43.80;;;;;;6184716;23;20520;-41
2023/11/01 05:49:43;;;;;;;2.45;1.20;;;22.70;43.80;;;;;;6184096;23;20253;-42
2023/11/01 05:52:09;;;;;;;1.27;1.05;;;22.70;43.80;;;;;;6184620;23;20301;-41
2023/11/01 05:54:35;;;;;;;1.10;0.73;;;22.60;43.70;;;;;;6180867;23;20262;-42
2023/11/01 05:57:03;;;;;;;0.80;0.80;;;22.70;43.80;;;;;;6183251;23;20198;-42
2023/11/01 05:59:29;;;;;;;2.55;1.02;;;22.70;43.90;;;;;;6184193;23;20175;-42
2023/11/01 06:01:56;;;;;;;0.75;0.70;;;22.60;43.80;;;;;;6183065;23;20198;-42
2023/11/01 06:04:22;;;;;;;1.92;0.88;;;22.70;43.90;;;;;;6182547;23;20179;-42
2023/11/01 06:06:49;;;;;;;1.20;1.10;;;22.60;43.80;;;;;;6184232;23;20261;-42
2023/11/01 06:09:19;;;;;;;1.20;1.10;;;22.60;43.80;;;;;;6184076;23;20174;-42
2023/11/01 06:11:45;;;;;;;1.85;0.70;;;22.60;43.80;;;;;;6181350;23;20203;-42
2023/11/01 06:14:12;;;;;;;0.95;0.80;;;22.60;43.80;;;;;;6181953;23;20285;-42
2023/11/01 06:16:38;;;;;;;0.95;0.80;;;22.60;43.80;;;;;;6183978;23;20257;-42
2023/11/01 06:19:05;;;;;;;1.63;0.93;;;22.60;43.80;;;;;;6184053;23;20543;-42
2023/11/01 06:21:31;;;;;;;0.90;0.75;;;22.60;43.80;;;;;;6184029;23;20284;-42
2023/11/01 06:23:58;;;;;;;1.05;0.70;;;22.70;43.90;;;;;;6183512;23;20214;-41
2023/11/01 06:26:24;;;;;;;1.95;0.77;;;22.70;43.80;;;;;;6182176;23;20179;-41
2023/11/01 06:28:51;;;;;;;1.35;0.70;;;22.60;43.90;;;;;;6179010;23;20269;-42
2023/11/01 06:31:19;;;;;;;1.55;0.80;;;22.60;43.90;;;;;;6182451;23;20200;-42
2023/11/01 06:33:46;;;;;;;1.20;1.08;;;22.60;43.90;;;;;;6185328;23;20183;-41
2023/11/01 06:36:12;;;;;;;1.05;0.90;;;22.60;43.90;;;;;;6184214;23;20257;-42
2023/11/01 06:38:39;;;;;;;1.98;0.80;;;22.60;43.90;;;;;;6181706;23;20285;-42
2023/11/01 06:41:05;;;;;;;0.90;0.90;;;22.60;43.90;;;;;;6180698;23;20273;-41
2023/11/01 06:43:32;;;;;;;0.75;0.75;;;22.60;43.90;;;;;;6184928;23;20254;-42
2023/11/01 06:45:58;;;;;;;1.50;0.90;;;22.60;43.90;;;;;;6181630;23;20261;-42
2023/11/01 06:48:24;;;;;;;4.20;1.10;;;22.60;43.90;;;;;;6181660;23;20258;-42
2023/11/01 06:50:51;;;;;;;2.22;1.20;;;22.60;44.00;;;;;;6183471;23;20519;-42
2023/11/01 06:53:17;;;;;;;4.82;1.30;;;22.60;44.00;;;;;;6182719;23;20256;-42
2023/11/01 06:55:44;;;;;;;2.10;0.90;;;22.60;44.40;;;;;;6182570;23;20265;-42
2023/11/01 06:58:10;;;;;;;2.25;1.48;;;22.60;44.40;;;;;;6180950;23;20202;-41
2023/11/01 07:00:37;;;;;;;1.98;0.90;;;22.60;44.40;;;;;;6181140;23;20273;-42
2023/11/01 07:03:04;;;;;;;2.17;1.08;;;22.60;44.50;;;;;;6178192;23;20182;-42
2023/11/01 07:05:30;;;;;;;3.72;1.40;;;22.60;44.50;;;;;;6183329;23;20257;-42
2023/11/01 07:07:57;;;;;;;3.00;1.02;;;22.60;44.50;;;;;;6184465;23;20205;-42
2023/11/01 07:10:23;;;;;;;1.38;0.90;;;22.60;44.50;;;;;;6183838;23;20212;-41
2023/11/01 07:12:49;;;;;;;4.35;1.00;;;22.60;44.60;;;;;;6181912;23;20258;-42
2023/11/01 07:15:16;;;;;;;3.05;1.02;;;22.60;44.50;;;;;;6183217;23;20209;-42
2023/11/01 07:17:42;;;;;;;4.20;1.10;;;22.60;44.30;;;;;;6183483;23;20198;-42
2023/11/01 07:20:09;;;;;;;2.08;0.90;;;22.60;44.20;;;;;;6182369;23;20226;-42
2023/11/01 07:22:35;;;;;;;2.83;1.05;;;22.60;44.20;;;;;;6182715;23;20268;-42
2023/11/01 07:25:02;;;;;;;1.02;0.93;;;22.60;44.10;;;;;;6182448;23;20621;-42
2023/11/01 07:27:28;;;;;;;2.25;1.20;;;22.60;44.10;;;;;;6180351;23;20186;-42
2023/11/01 07:29:55;;;;;;;2.97;1.05;;;22.60;44.10;;;;;;6169658;23;20713;-39
2023/11/01 07:32:21;;;;;;;3.15;1.30;;;22.60;44.10;;;;;;6174430;23;20175;-42
2023/11/01 07:34:48;;;;;;;3.45;1.50;;;22.60;44.20;;;;;;6179504;23;20193;-41
2023/11/01 07:37:14;;;;;;;7.57;1.55;;;22.60;44.30;;;;;;6180388;23;20174;-38
2023/11/01 07:39:41;;;;;;;2.17;1.23;;;22.60;44.50;;;;;;6178074;23;20262;-41
2023/11/01 07:42:07;;;;;;;4.38;1.30;;;22.60;44.10;;;;;;6182214;23;20178;-42
2023/11/01 07:44:34;;;;;;;6.97;1.38;;;22.50;43.50;;;;;;6181748;23;20261;-42
2023/11/01 07:47:00;;;;;;;3.90;1.83;;;22.50;43.10;;;;;;6182769;23;20174;-39
2023/11/01 07:49:27;;;;;;;4.47;1.40;;;22.50;42.80;;;;;;6181338;23;20182;-41
2023/11/01 07:51:53;;;;;;;6.05;1.60;;;22.40;42.60;;;;;;6183371;23;20274;-41
2023/11/01 07:54:19;;;;;;;3.92;1.70;;;22.50;43.20;;;;;;6182252;23;20254;-41
2023/11/01 07:56:46;;;;;;;5.07;2.17;;;22.40;42.80;;;;;;6181114;23;20249;-41
2023/11/01 07:59:13;;;;;;;9.25;1.52;;;22.40;42.70;;;;;;6180582;23;20202;-40
2023/11/01 08:01:41;;;;;;;3.33;1.65;;;22.30;42.10;;;;;;6176722;23;20278;-41
2023/11/01 08:04:07;;;;;;;3.47;1.33;;;22.30;42.00;;;;;;6178257;23;20187;-41
2023/11/01 08:06:33;;;;;;;3.08;1.38;;;22.30;41.90;;;;;;6178995;23;20275;-42
2023/11/01 08:09:00;;;;;;;4.75;1.40;;;22.20;41.40;;;;;;6182774;23;20265;-36
2023/11/01 08:11:26;;;;;;;4.53;1.42;;;22.20;41.30;;;;;;6179859;23;20285;-37
2023/11/01 08:13:53;;;;;;;2.83;1.20;;;21.30;37.10;;;;;;6175383;23;20192;-42
2023/11/01 08:16:19;;;;;;;1.52;1.08;;;20.80;38.70;;;;;;6181906;23;20174;-42
2023/11/01 08:18:46;;;;;;;1.90;1.10;;;21.10;37.60;;;;;;6181306;23;20277;-42
2023/11/01 08:21:12;;;;;;;2.58;1.00;;;21.30;37.90;;;;;;6182233;23;20289;-42
2023/11/01 08:23:39;;;;;;;2.42;1.10;;;21.50;38.70;;;;;;6183223;23;20488;-42
2023/11/01 08:26:06;;;;;;;2.53;1.13;;;21.70;39.40;;;;;;6182999;23;20175;-42
2023/11/01 08:28:32;;;;;;;1.20;0.90;;;21.80;39.70;;;;;;6170241;23;20182;-42
2023/11/01 08:30:59;;;;;;;1.88;1.20;;;21.90;40.10;;;;;;6177118;23;20233;-42
2023/11/01 08:33:25;;;;;;;1.58;1.13;;;22.00;40.30;;;;;;6180768;23;20253;-42
2023/11/01 08:35:52;;;;;;;1.30;0.90;;;22.00;40.50;;;;;;6182179;23;20174;-40
2023/11/01 08:38:18;;;;;;;1.80;1.10;;;22.00;40.70;;;;;;6177666;23;20202;-42
2023/11/01 08:40:45;;;;;;;1.20;1.10;;;22.10;40.50;;;;;;6174396;23;20226;-42
2023/11/01 08:43:12;;;;;;;3.25;0.90;;;22.20;41.00;;;;;;6181471;23;20185;-44
2023/11/01 08:45:38;;;;;;;1.85;1.35;;;22.20;41.30;;;;;;6179759;23;20214;-39
2023/11/01 08:48:05;;;;;;;1.00;0.80;;;22.20;41.00;;;;;;6180122;23;20253;-42
2023/11/01 08:50:31;;;;;;;3.95;1.35;;;22.20;41.30;;;;;;6179767;23;20194;-41
2023/11/01 08:52:58;;;;;;;2.75;1.10;;;22.30;41.50;;;;;;6181507;23;20221;-38
2023/11/01 08:55:25;;;;;;;0.85;0.85;;;22.30;41.40;;;;;;6183319;23;20257;-47
2023/11/01 08:57:51;;;;;;;1.45;0.90;;;22.40;42.30;;;;;;6183749;23;20194;-46
2023/11/01 09:00:18;;;;;;;0.85;0.85;;;22.50;41.60;;;;;;6181032;23;20277;-46
2023/11/01 09:02:44;;;;;;;1.70;0.90;;;22.40;39.60;;;;;;6181976;23;20209;-44
2023/11/01 09:05:12;;;;;;;3.60;1.00;;;22.30;37.70;;;;;;6183497;23;20257;-41
2023/11/01 09:07:38;;;;;;;2.00;0.95;;;22.30;36.60;;;;;;6183560;23;20178;-49
2023/11/01 09:10:07;;;;;;;1.38;1.10;;;22.30;35.50;;;;;;6182574;23;20581;-43
2023/11/01 09:12:34;;;;;;;1.02;0.93;;;22.20;34.40;;;;;;6181515;23;20178;-36
2023/11/01 09:15:00;;;;;;;1.58;0.90;;;22.30;33.90;;;;;;6185601;23;20197;-35
2023/11/01 09:17:27;;;;;;;1.02;0.93;;;22.20;33.00;;;;;;6182757;23;20257;-43
2023/11/01 09:19:54;;;;;;;2.67;1.00;;;22.20;32.10;;;;;;6181629;23;20281;-45
2023/11/01 09:22:20;;;;;;;2.33;1.25;;;22.10;31.70;;;;;;6184590;23;20190;-41
2023/11/01 09:24:47;;;;;;;1.52;0.90;;;22.20;31.60;;;;;;6182755;23;20178;-43
2023/11/01 09:27:13;;;;;;;1.55;0.90;;;22.10;32.70;;;;;;6181478;23;20184;-45
2023/11/01 09:29:40;;;;;;;0.93;0.93;;;22.10;32.60;;;;;;6179065;23;20281;-46
2023/11/01 09:32:06;;;;;;;1.85;1.00;;;22.10;32.10;;;;;;6178407;23;20183;-44
2023/11/01 09:34:33;;;;;;;1.27;1.00;;;22.10;31.50;;;;;;6169183;23;20730;-37
2023/11/01 09:36:59;;;;;;;1.05;0.95;;;22.20;32.30;;;;;;6171146;23;20650;-42
2023/11/01 09:39:26;;;;;;;0.93;0.93;;;22.20;32.80;;;;;;6177722;23;20642;-45
2023/11/01 09:41:52;;;;;;;1.38;0.85;;;22.20;33.60;;;;;;6175545;23;20181;-45
2023/11/01 09:44:18;;;;;;;1.00;0.90;;;22.30;35.40;;;;;;6183803;23;20257;-45
2023/11/01 09:46:45;;;;;;;0.70;0.70;;;22.30;36.60;;;;;;6184056;23;20225;-45
2023/11/01 09:49:11;;;;;;;0.80;0.80;;;22.30;37.30;;;;;;6182993;23;20261;-46
2023/11/01 09:51:38;;;;;;;1.00;0.90;;;22.30;37.80;;;;;;6184235;23;20265;-49
2023/11/01 09:54:05;;;;;;;1.00;0.90;;;22.30;37.90;;;;;;6183303;23;20557;-46
2023/11/01 09:56:32;;;;;;;0.80;0.80;;;22.40;38.10;;;;;;6182599;23;20489;-45
2023/11/01 09:58:59;;;;;;;1.23;0.80;;;22.40;38.40;;;;;;6182491;23;20203;-46
2023/11/01 10:01:26;;;;;;;1.40;0.80;;;22.50;38.40;;;;;;6180918;23;20194;-45
2023/11/01 10:03:52;;;;;;;1.00;0.80;;;22.50;38.60;;;;;;6180575;23;20261;-47
2023/11/01 10:06:18;;;;;;;0.90;0.90;;;22.50;38.60;;;;;;6185313;23;20253;-45
2023/11/01 10:08:45;;;;;;;0.73;0.73;;;22.50;38.60;;;;;;6183512;23;20261;-45
2023/11/01 10:11:11;;;;;;;0.90;0.80;;;22.50;38.90;;;;;;6184793;23;20246;-48
2023/11/01 10:13:38;;;;;;;1.33;0.75;;;22.50;38.70;;;;;;6182721;23;20924;-46
2023/11/01 10:16:04;;;;;;;0.80;0.80;;;22.50;38.90;;;;;;6183691;23;20688;-44
2023/11/01 10:18:31;;;;;;;1.83;1.00;;;22.50;39.10;;;;;;6181083;23;20634;-44
2023/11/01 10:20:57;;;;;;;0.85;0.82;;;22.50;39.00;;;;;;6183418;23;20548;-46
2023/11/01 10:23:24;;;;;;;0.80;0.80;;;22.50;39.00;;;;;;6182787;23;20202;-45
2023/11/01 10:25:51;;;;;;;2.15;0.85;;;22.60;39.20;;;;;;6184266;23;20178;-45
2023/11/01 10:28:17;;;;;;;1.70;0.90;;;22.60;39.20;;;;;;6182664;23;20699;-46
2023/11/01 10:30:46;;;;;;;1.00;0.90;;;22.60;39.20;;;;;;6184524;23;20195;-47
2023/11/01 10:33:13;;;;;;;0.77;0.77;;;22.60;39.30;;;;;;6183904;23;20186;-44
2023/11/01 10:35:39;;;;;;;0.88;0.88;;;22.60;39.30;;;;;;6183044;23;20179;-45
2023/11/01 10:38:07;;;;;;;1.77;0.90;;;22.60;39.60;;;;;;6180098;23;20191;-45
2023/11/01 10:40:33;;;;;;;0.80;0.80;;;22.60;39.70;;;;;;6182440;23;20220;-46
2023/11/01 10:43:00;;;;;;;1.00;0.80;;;22.60;39.60;;;;;;6184068;23;20182;-45
2023/11/01 10:45:25;;;;;;;0.80;0.80;;;22.60;39.50;;;;;;6181236;23;20694;-49
2023/11/01 10:47:52;;;;;;;1.58;0.90;;;22.60;39.60;;;;;;6178700;23;20210;-45
2023/11/01 10:50:18;;;;;;;0.90;0.90;;;22.60;39.50;;;;;;6182515;23;20281;-42
2023/11/01 10:52:45;;;;;;;0.80;0.80;;;22.60;39.70;;;;;;6181966;23;20532;-46
2023/11/01 10:55:11;;;;;;;0.80;0.80;;;22.60;39.30;;;;;;6180908;23;20574;-47
2023/11/01 10:57:38;;;;;;;0.90;0.90;;;22.60;39.70;;;;;;6177915;23;20265;-45
2023/11/01 11:00:05;;;;;;;0.77;0.77;;;22.60;39.90;;;;;;6177687;23;20660;-43
2023/11/01 11:02:32;;;;;;;0.75;0.70;;;22.60;39.80;;;;;;6181164;23;20178;-46
2023/11/01 11:04:58;;;;;;;0.82;0.82;;;22.60;40.00;;;;;;6176250;23;20261;-49
2023/11/01 11:07:25;;;;;;;0.77;0.70;;;22.60;39.60;;;;;;6179344;23;20209;-48
2023/11/01 11:09:51;;;;;;;1.10;0.80;;;22.60;40.10;;;;;;6178699;23;20735;-48
2023/11/01 11:12:19;;;;;;;0.73;0.70;;;22.60;40.20;;;;;;6180144;23;20187;-52
2023/11/01 11:14:46;;;;;;;1.90;0.80;;;22.60;40.40;;;;;;6176780;23;20214;-47
2023/11/01 11:17:12;;;;;;;1.75;1.00;;;22.60;40.30;;;;;;6172108;23;20253;-49
2023/11/01 11:19:39;;;;;;;0.90;0.90;;;22.60;40.50;;;;;;6170002;23;20214;-44
2023/11/01 11:22:05;;;;;;;0.90;0.80;;;22.70;40.30;;;;;;6171735;23;20265;-43
2023/11/01 11:24:31;;;;;;;1.42;0.70;;;22.60;40.00;;;;;;6178970;23;20181;-47
2023/11/01 11:26:57;;;;;;;1.13;0.80;;;22.70;40.10;;;;;;6180784;23;20206;-41
2023/11/01 11:29:23;;;;;;;0.70;0.70;;;22.80;39.60;;;;;;6182442;23;20233;-41
2023/11/01 11:31:50;;;;;;;0.80;0.80;;;22.80;40.00;;;;;;6177965;23;20249;-40
2023/11/01 11:34:16;;;;;;;0.85;0.85;;;22.70;40.20;;;;;;6173042;23;20257;-38
2023/11/01 11:36:43;;;;;;;0.93;0.75;;;22.70;40.10;;;;;;6180502;23;20221;-40
2023/11/01 11:39:10;;;;;;;0.88;0.70;;;22.70;40.20;;;;;;6181061;23;20216;-40
2023/11/01 11:41:37;;;;;;;0.95;0.80;;;22.70;40.10;;;;;;6183005;23;20175;-40
2023/11/01 11:44:03;;;;;;;1.02;0.90;;;22.70;40.20;;;;;;6184394;23;20222;-41
2023/11/01 11:46:31;;;;;;;0.88;0.77;;;22.70;40.20;;;;;;6179106;23;20178;-40
2023/11/01 11:48:57;;;;;;;0.80;0.80;;;22.70;40.60;;;;;;6183212;23;20174;-39
2023/11/01 11:51:24;;;;;;;0.60;0.60;;;22.80;40.40;;;;;;6181888;23;20174;-41
2023/11/01 11:53:50;;;;;;;0.88;0.88;;;22.80;39.80;;;;;;6183081;23;20174;-41
2023/11/01 11:56:16;;;;;;;1.05;0.90;;;22.80;39.90;;;;;;6181798;23;20213;-38
2023/11/01 11:58:43;;;;;;;1.98;0.90;;;22.80;39.80;;;;;;6177524;23;20244;-37
2023/11/01 12:01:10;;;;;;;1.33;0.80;;;22.80;40.10;;;;;;6181414;23;20278;-37
2023/11/01 12:03:37;;;;;;;1.73;0.80;;;22.80;40.20;;;;;;6183678;23;20175;-41
2023/11/01 12:06:03;;;;;;;0.70;0.70;;;22.80;40.70;;;;;;6176954;23;20562;-38
2023/11/01 12:08:29;;;;;;;1.38;0.70;;;22.80;41.00;;;;;;6177512;23;20531;-39
2023/11/01 12:10:56;;;;;;;0.70;0.70;;;22.80;40.70;;;;;;6182877;23;20237;-39
2023/11/01 12:13:22;;;;;;;0.80;0.80;;;22.80;40.90;;;;;;6183577;23;20186;-40
2023/11/01 12:15:49;;;;;;;1.23;1.00;;;22.70;40.70;;;;;;6182803;23;20261;-39
2023/11/01 12:18:17;;;;;;;0.75;0.75;;;22.70;40.50;;;;;;6174614;23;20285;-39
2023/11/01 12:20:44;;;;;;;1.20;0.80;;;22.70;40.40;;;;;;6171539;23;20249;-39
2023/11/01 12:23:10;;;;;;;1.08;1.00;;;22.70;40.40;;;;;;6180311;23;20178;-39
2023/11/01 12:25:37;;;;;;;0.73;0.73;;;22.70;40.20;;;;;;6179852;23;20261;-40
2023/11/01 12:28:04;;;;;;;0.85;0.80;;;22.70;40.20;;;;;;6179720;23;20666;-38
2023/11/01 12:30:30;;;;;;;1.38;1.10;;;22.70;40.20;;;;;;6182305;23;20198;-40
2023/11/01 12:32:57;;;;;;;0.90;0.90;;;22.70;40.20;;;;;;6182576;23;20616;-40
2023/11/01 12:35:24;;;;;;;1.42;1.10;;;22.70;40.20;;;;;;6181785;23;20174;-36
2023/11/01 12:37:50;;;;;;;2.47;1.48;;;22.70;40.10;;;;;;6178977;23;20834;-39
2023/11/01 12:40:17;;;;;;;2.67;1.15;;;22.60;40.10;;;;;;6176994;23;20285;-40
2023/11/01 12:42:43;;;;;;;1.92;1.35;;;22.60;40.00;;;;;;6182081;23;20209;-39